Somerville, Indiana
Current Conditions -  °F | °C
As of 2:54 AM on Monday 20 Oct 2014 (Local Time) from KEVV Reporting Station
Overcast Overcast  
Wind Chill: 47°   Ceiling: 12000
Heat Index: 47°   Visibility: 10mi
Dew Point: 44°   Wind: 0mph
Humidity: 90%   Direction: NA
Pressure: 30.06"   Gusts: NA
Location:  38.28°N, 87.38°W
Report Text: KEVV 200754Z AUTO 00000KT 10SM OVC120 08/07 A3006 RMK AO2 SLP177 T00830067
Loading
Personal Weather Stations






























Interactive Weather Map
Tropical Storm Tracking
New forecast layout! Learn more

10-Day Weather Forecast

Advertisements
Track Severe Weather on mobile